Time;durP1;ratioP1;P1;durP2;ratioP2;P2;SDS_P1;SDS_P2;PMS_P1;PMS_P2;Temp;Humidity;BMP_temperature;BMP_pressure;BME280_temperature;BME280_humidity;BME280_pressure;Samples;Min_cycle;Max_cycle;Signal;HPM_P1;HPM_P2
2021/09/28 00:02:23;;;;;;;10.60;7.60;;;11.70;99.90;;;;;;5054718;28;20548;-67
2021/09/28 00:04:51;;;;;;;15.23;7.50;;;11.80;99.90;;;;;;5059290;28;20529;-67
2021/09/28 00:07:18;;;;;;;13.77;8.10;;;11.80;99.90;;;;;;5059171;28;20477;-67
2021/09/28 00:09:45;;;;;;;12.87;8.43;;;11.80;99.90;;;;;;5058799;28;20462;-67
2021/09/28 00:12:13;;;;;;;12.63;8.90;;;11.80;99.90;;;;;;5058793;28;20462;-67
2021/09/28 00:14:40;;;;;;;14.47;8.10;;;11.80;99.90;;;;;;5059020;28;20532;-67
2021/09/28 00:17:07;;;;;;;15.80;8.67;;;11.70;99.90;;;;;;5059016;28;20561;-67
2021/09/28 00:19:34;;;;;;;19.63;8.80;;;11.70;99.90;;;;;;5057044;28;20462;-67
2021/09/28 00:22:03;;;;;;;12.07;7.50;;;11.70;99.90;;;;;;5057637;28;20489;-68
2021/09/28 00:24:30;;;;;;;15.77;9.27;;;11.70;99.90;;;;;;5057381;28;20497;-68
2021/09/28 00:26:59;;;;;;;10.93;8.00;;;11.70;99.90;;;;;;5057487;28;20462;-68
2021/09/28 00:29:27;;;;;;;13.33;8.43;;;11.70;99.90;;;;;;5057779;28;20470;-68
2021/09/28 00:31:54;;;;;;;13.20;9.17;;;11.60;99.90;;;;;;5058325;28;20462;-68
2021/09/28 00:34:21;;;;;;;13.67;8.90;;;11.60;99.90;;;;;;5057888;28;20490;-68
2021/09/28 00:36:48;;;;;;;11.83;8.93;;;11.60;99.90;;;;;;5058346;28;20885;-68
2021/09/28 00:39:16;;;;;;;14.20;8.40;;;11.60;99.90;;;;;;5057643;28;20454;-68
2021/09/28 00:41:43;;;;;;;22.13;8.77;;;11.50;99.90;;;;;;5056411;28;20922;-68
2021/09/28 00:44:16;;;;;;;13.70;9.20;;;11.40;99.90;;;;;;5056941;28;20462;-68
2021/09/28 00:46:43;;;;;;;9.80;8.10;;;11.40;99.90;;;;;;5057756;28;20692;-68
2021/09/28 00:49:12;;;;;;;14.37;8.90;;;11.30;99.90;;;;;;5058257;28;20462;-68
2021/09/28 00:51:40;;;;;;;13.13;8.60;;;11.30;99.90;;;;;;5058325;28;20512;-68
2021/09/28 00:54:07;;;;;;;15.60;8.97;;;11.20;99.90;;;;;;5058120;28;20462;-69
2021/09/28 00:56:35;;;;;;;10.53;7.87;;;11.20;99.90;;;;;;5058250;28;20897;-69
2021/09/28 00:59:02;;;;;;;12.30;7.60;;;11.20;99.90;;;;;;5058155;28;20528;-69
2021/09/28 01:01:29;;;;;;;9.40;7.57;;;11.20;99.90;;;;;;5057820;28;20523;-69
2021/09/28 01:03:57;;;;;;;10.07;7.70;;;11.30;99.90;;;;;;5058353;28;20513;-69
2021/09/28 01:06:24;;;;;;;14.70;8.30;;;11.20;99.90;;;;;;5058245;28;20935;-69
2021/09/28 01:08:51;;;;;;;13.93;8.07;;;11.20;99.90;;;;;;5058027;28;20967;-69
2021/09/28 01:11:18;;;;;;;11.90;7.00;;;11.10;99.90;;;;;;5057917;28;20987;-69
2021/09/28 01:13:46;;;;;;;11.50;7.50;;;11.10;99.90;;;;;;5057439;28;20466;-69
2021/09/28 01:16:13;;;;;;;9.27;7.27;;;11.20;99.90;;;;;;5057739;28;20866;-69
2021/09/28 01:18:44;;;;;;;12.23;8.77;;;11.20;99.90;;;;;;5057650;28;20469;-69
2021/09/28 01:21:14;;;;;;;12.63;8.20;;;11.20;99.90;;;;;;5057760;28;20522;-69
2021/09/28 01:23:45;;;;;;;12.70;8.73;;;11.10;99.90;;;;;;5057448;28;20466;-69
2021/09/28 01:26:17;;;;;;;12.23;8.07;;;11.10;99.90;;;;;;5057702;28;20976;-70
2021/09/28 01:28:45;;;;;;;14.63;8.67;;;11.00;99.90;;;;;;5057394;28;20477;-70
2021/09/28 01:31:13;;;;;;;10.70;7.80;;;11.00;99.90;;;;;;5057864;28;20504;-70
2021/09/28 01:33:40;;;;;;;11.30;8.60;;;11.00;99.90;;;;;;5057465;28;21002;-70
2021/09/28 01:36:07;;;;;;;12.10;8.40;;;11.00;99.90;;;;;;5057371;28;20467;-70
2021/09/28 01:38:36;;;;;;;18.20;9.23;;;10.90;99.90;;;;;;5057699;28;20459;-70
2021/09/28 01:41:04;;;;;;;14.87;8.70;;;10.90;99.90;;;;;;5057310;28;20608;-70
2021/09/28 01:43:31;;;;;;;18.60;8.37;;;10.90;99.90;;;;;;5057435;28;20532;-70
2021/09/28 01:46:01;;;;;;;12.17;8.80;;;10.80;99.90;;;;;;5057137;28;20524;-70
2021/09/28 01:48:36;;;;;;;12.60;9.10;;;10.80;99.90;;;;;;5057337;28;20520;-70
2021/09/28 01:51:03;;;;;;;16.50;9.93;;;10.80;99.90;;;;;;5057251;28;20828;-70
2021/09/28 01:53:30;;;;;;;19.37;11.20;;;10.80;99.90;;;;;;5056810;28;20466;-70
2021/09/28 01:55:59;;;;;;;13.33;10.23;;;10.80;99.90;;;;;;5057143;28;20901;-70
2021/09/28 01:58:26;;;;;;;14.70;9.70;;;10.90;99.90;;;;;;5056255;28;20464;-70
2021/09/28 02:00:53;;;;;;;21.30;10.43;;;10.90;99.90;;;;;;5057353;28;20558;-71
2021/09/28 02:03:20;;;;;;;13.40;9.83;;;10.90;99.90;;;;;;5057122;28;20576;-71
2021/09/28 02:05:47;;;;;;;19.47;10.40;;;10.90;99.90;;;;;;5056845;28;20458;-70
2021/09/28 02:08:14;;;;;;;21.23;10.47;;;10.90;99.90;;;;;;5056940;28;20896;-70
2021/09/28 02:10:41;;;;;;;17.20;9.70;;;10.90;99.90;;;;;;5056658;28;20458;-70
2021/09/28 02:13:10;;;;;;;13.77;9.57;;;10.90;99.90;;;;;;5056970;28;20592;-70
2021/09/28 02:15:37;;;;;;;15.80;9.57;;;10.90;99.90;;;;;;5056770;28;20462;-71
2021/09/28 02:18:05;;;;;;;16.83;9.80;;;11.00;99.90;;;;;;5056607;28;20512;-71
2021/09/28 02:20:32;;;;;;;16.03;10.30;;;10.90;99.90;;;;;;5057180;28;20474;-71
2021/09/28 02:22:59;;;;;;;17.20;9.37;;;10.90;99.90;;;;;;5057140;28;20501;-71
2021/09/28 02:25:27;;;;;;;17.10;8.40;;;10.90;99.90;;;;;;5056506;28;20462;-71
2021/09/28 02:27:56;;;;;;;13.73;8.10;;;10.90;99.90;;;;;;5056781;28;20469;-71
2021/09/28 02:30:25;;;;;;;17.37;8.07;;;10.80;99.90;;;;;;5056685;28;20436;-71
2021/09/28 02:32:52;;;;;;;13.30;8.10;;;10.90;99.90;;;;;;5056801;28;20458;-71
2021/09/28 02:35:19;;;;;;;16.17;8.70;;;10.90;99.90;;;;;;5056606;28;20490;-71
2021/09/28 02:37:46;;;;;;;13.33;8.27;;;11.00;99.90;;;;;;5056515;28;20524;-71
2021/09/28 02:40:14;;;;;;;12.93;9.17;;;11.00;99.90;;;;;;5056807;28;20524;-71
2021/09/28 02:42:43;;;;;;;7.60;6.30;;;11.00;99.90;;;;;;5057129;28;20493;-71
2021/09/28 02:45:11;;;;;;;12.70;8.33;;;11.00;99.90;;;;;;5056735;28;20816;-71
2021/09/28 02:47:39;;;;;;;15.97;8.43;;;11.00;99.90;;;;;;5057459;28;20462;-71
2021/09/28 02:50:06;;;;;;;15.70;8.10;;;11.00;99.90;;;;;;5056601;28;20543;-71
2021/09/28 02:52:33;;;;;;;12.60;8.20;;;10.90;99.90;;;;;;5056496;28;20462;-71
2021/09/28 02:55:01;;;;;;;10.53;7.13;;;10.90;99.90;;;;;;5056572;28;20970;-71
2021/09/28 02:57:28;;;;;;;17.13;9.27;;;10.90;99.90;;;;;;5056165;28;20909;-71
2021/09/28 02:59:55;;;;;;;13.40;8.63;;;10.90;99.90;;;;;;5056491;28;21276;-71
2021/09/28 03:02:22;;;;;;;12.20;8.03;;;10.80;99.90;;;;;;5056349;28;20490;-71
2021/09/28 03:04:50;;;;;;;10.67;8.57;;;10.80;99.90;;;;;;5056511;28;20528;-71
2021/09/28 03:07:17;;;;;;;12.97;7.70;;;10.80;99.90;;;;;;5056854;28;20462;-71
2021/09/28 03:09:44;;;;;;;10.73;7.83;;;10.80;99.90;;;;;;5053470;28;20834;-71
2021/09/28 03:12:11;;;;;;;12.10;8.07;;;10.80;99.90;;;;;;5039991;28;20459;-71
2021/09/28 03:14:38;;;;;;;12.83;8.40;;;10.80;99.90;;;;;;5039796;28;20972;-71
2021/09/28 03:17:05;;;;;;;15.13;9.60;;;10.70;99.90;;;;;;5040194;28;20462;-71
2021/09/28 03:19:33;;;;;;;12.70;9.17;;;10.70;99.90;;;;;;5040423;28;20461;-71
2021/09/28 03:22:01;;;;;;;18.73;9.97;;;10.70;99.90;;;;;;5039861;28;20495;-71
2021/09/28 03:24:29;;;;;;;19.73;9.83;;;10.70;99.90;;;;;;5040378;28;20926;-72
2021/09/28 03:26:56;;;;;;;13.67;8.70;;;10.70;99.90;;;;;;5040033;28;20949;-72
2021/09/28 03:29:23;;;;;;;18.63;9.97;;;10.70;99.90;;;;;;5039970;28;20816;-72
2021/09/28 03:31:50;;;;;;;13.50;9.90;;;10.70;99.90;;;;;;5039669;28;20964;-72
2021/09/28 03:34:17;;;;;;;11.30;8.90;;;10.70;99.90;;;;;;5039870;28;20937;-72
2021/09/28 03:36:44;;;;;;;17.70;9.33;;;10.70;99.90;;;;;;5039842;28;20450;-72
2021/09/28 03:39:12;;;;;;;14.50;10.33;;;10.70;99.90;;;;;;5039892;28;20438;-72
2021/09/28 03:41:39;;;;;;;18.07;11.23;;;10.70;99.90;;;;;;5039448;28;20914;-73
2021/09/28 03:44:06;;;;;;;15.93;10.97;;;10.60;99.90;;;;;;5039612;28;21024;-73
2021/09/28 03:46:33;;;;;;;16.87;10.20;;;10.60;99.90;;;;;;5039562;28;20498;-73
2021/09/28 03:49:00;;;;;;;19.00;11.33;;;10.60;99.90;;;;;;5052145;28;20901;-72
2021/09/28 03:51:27;;;;;;;22.50;11.53;;;10.60;99.90;;;;;;5059455;28;20458;-73
2021/09/28 03:53:55;;;;;;;20.87;11.07;;;10.50;99.90;;;;;;5059321;28;20458;-73
2021/09/28 03:56:23;;;;;;;14.37;9.37;;;10.60;99.90;;;;;;5059356;28;20928;-73
2021/09/28 03:58:50;;;;;;;19.87;10.07;;;10.50;99.90;;;;;;5059400;28;20469;-73
2021/09/28 04:01:19;;;;;;;16.50;11.83;;;10.50;99.90;;;;;;5058790;28;20747;-73
2021/09/28 04:03:46;;;;;;;19.63;10.60;;;10.50;99.90;;;;;;5058994;28;20494;-73
2021/09/28 04:06:16;;;;;;;18.23;10.50;;;10.50;99.90;;;;;;5059032;28;20568;-73
2021/09/28 04:08:43;;;;;;;15.20;10.50;;;10.50;99.90;;;;;;5059441;28;20462;-74
2021/09/28 04:11:10;;;;;;;12.20;10.03;;;10.50;99.90;;;;;;5043174;28;20471;-74
2021/09/28 04:13:40;;;;;;;20.87;11.10;;;10.50;99.90;;;;;;5045411;28;20787;-74
2021/09/28 04:16:08;;;;;;;18.53;10.17;;;10.50;99.90;;;;;;5047556;28;20754;-74
2021/09/28 04:18:35;;;;;;;20.37;10.10;;;10.50;99.90;;;;;;5039039;28;20471;-74
2021/09/28 04:21:03;;;;;;;17.27;10.00;;;10.50;99.90;;;;;;5037989;28;20572;-74
2021/09/28 04:23:30;;;;;;;12.70;10.30;;;10.50;99.90;;;;;;5038814;28;20498;-75
2021/09/28 04:26:00;;;;;;;14.50;9.03;;;10.50;99.90;;;;;;5038584;28;20446;-75
2021/09/28 04:28:27;;;;;;;16.93;10.10;;;10.50;99.90;;;;;;5038776;28;20467;-75
2021/09/28 04:30:56;;;;;;;21.17;10.37;;;10.40;99.90;;;;;;5038909;28;21119;-75
2021/09/28 04:33:23;;;;;;;20.20;9.23;;;10.40;99.90;;;;;;5038556;28;20483;-75
2021/09/28 04:35:50;;;;;;;16.67;8.77;;;10.30;99.90;;;;;;5053389;28;20759;-75
2021/09/28 04:38:20;;;;;;;16.87;9.10;;;10.30;99.90;;;;;;5057550;28;20905;-75
2021/09/28 04:40:47;;;;;;;19.13;8.70;;;10.30;99.90;;;;;;5058611;28;20588;-75
2021/09/28 04:43:14;;;;;;;16.70;8.60;;;10.30;99.90;;;;;;5057546;28;20785;-75
2021/09/28 04:45:41;;;;;;;16.90;8.20;;;10.20;99.90;;;;;;5057911;28;20444;-74
2021/09/28 04:48:10;;;;;;;11.80;8.50;;;10.20;99.90;;;;;;5057969;28;20448;-74
2021/09/28 04:50:37;;;;;;;12.50;7.23;;;10.20;99.90;;;;;;5058458;28;20454;-75
2021/09/28 04:53:04;;;;;;;14.00;8.27;;;10.20;99.90;;;;;;5058675;28;20461;-75
2021/09/28 04:55:32;;;;;;;20.90;9.70;;;10.10;99.90;;;;;;5058193;28;20466;-75
2021/09/28 04:57:59;;;;;;;14.07;7.83;;;10.20;99.90;;;;;;5057999;28;20499;-74
2021/09/28 05:00:29;;;;;;;17.77;8.60;;;10.10;99.90;;;;;;5055811;28;20466;-74
2021/09/28 05:02:56;;;;;;;12.43;8.40;;;10.20;99.90;;;;;;5054742;28;20493;-74
2021/09/28 05:05:24;;;;;;;10.77;7.93;;;10.20;99.90;;;;;;5064673;28;20431;-74
2021/09/28 05:07:51;;;;;;;16.00;8.17;;;10.20;99.90;;;;;;5061625;28;20474;-74
2021/09/28 05:10:19;;;;;;;14.97;8.67;;;10.10;99.90;;;;;;5054089;28;20453;-74
2021/09/28 05:12:48;;;;;;;13.90;7.73;;;10.10;99.90;;;;;;5052308;28;20469;-73
2021/09/28 05:15:16;;;;;;;16.43;8.60;;;10.00;99.90;;;;;;5053832;28;20847;-73
2021/09/28 05:17:43;;;;;;;15.10;9.00;;;10.00;99.90;;;;;;5048370;28;20552;-73
2021/09/28 05:20:11;;;;;;;11.23;8.30;;;10.00;99.90;;;;;;5055146;28;20478;-73
2021/09/28 05:22:45;;;;;;;16.57;8.20;;;10.00;99.90;;;;;;5050865;28;20490;-73
2021/09/28 05:25:12;;;;;;;10.83;8.50;;;9.90;99.90;;;;;;5047233;28;20540;-73
2021/09/28 05:27:39;;;;;;;15.97;8.73;;;10.00;99.90;;;;;;5043190;28;20438;-73
2021/09/28 05:30:11;;;;;;;15.00;8.87;;;10.00;99.90;;;;;;5044609;28;20475;-73
2021/09/28 05:32:38;;;;;;;10.13;8.70;;;10.00;99.90;;;;;;5048877;28;20474;-73
2021/09/28 05:35:06;;;;;;;16.50;7.67;;;9.90;99.90;;;;;;5042576;28;20947;-73
2021/09/28 05:37:33;;;;;;;16.53;7.60;;;9.90;99.90;;;;;;5041999;28;20471;-70
2021/09/28 05:40:02;;;;;;;12.37;8.10;;;9.90;99.90;;;;;;5055176;28;20485;-69
2021/09/28 05:42:28;;;;;;;19.60;8.87;;;10.00;99.90;;;;;;5055640;28;20437;-70
2021/09/28 05:44:55;;;;;;;10.83;7.10;;;10.00;99.90;;;;;;5055971;28;20478;-70
2021/09/28 05:47:22;;;;;;;11.80;8.47;;;10.00;99.90;;;;;;5055107;28;20462;-70
2021/09/28 05:49:51;;;;;;;22.10;8.93;;;10.00;99.90;;;;;;5055869;28;20463;-70
2021/09/28 05:52:18;;;;;;;13.47;8.77;;;10.00;99.90;;;;;;5056321;28;20549;-70
2021/09/28 05:54:48;;;;;;;17.57;8.57;;;10.10;99.90;;;;;;5056539;28;20786;-71
2021/09/28 05:57:24;;;;;;;14.93;7.90;;;10.10;99.90;;;;;;5055772;28;20469;-71
2021/09/28 05:59:52;;;;;;;12.87;6.80;;;10.10;99.90;;;;;;5056135;28;20465;-71
2021/09/28 06:02:19;;;;;;;11.17;6.77;;;10.20;99.90;;;;;;5056503;28;20821;-71
2021/09/28 06:04:47;;;;;;;11.83;7.60;;;10.30;99.90;;;;;;5056384;28;20473;-71
2021/09/28 06:07:17;;;;;;;10.90;7.20;;;10.30;99.90;;;;;;5057363;28;20498;-71
2021/09/28 06:09:48;;;;;;;18.50;8.00;;;10.30;99.90;;;;;;5057019;28;20890;-69
2021/09/28 06:12:22;;;;;;;15.30;8.53;;;10.30;99.90;;;;;;5056874;28;20462;-70
2021/09/28 06:14:49;;;;;;;14.70;8.03;;;10.40;99.90;;;;;;5056773;28;20440;-70
2021/09/28 06:17:16;;;;;;;22.43;10.77;;;10.50;99.90;;;;;;5057347;28;20520;-70
2021/09/28 06:19:43;;;;;;;69.00;50.00;;;10.60;99.90;;;;;;5056716;28;20487;-70
2021/09/28 06:22:13;;;;;;;21.57;14.80;;;10.60;99.90;;;;;;5056600;28;20468;-70
2021/09/28 06:24:40;;;;;;;16.50;12.33;;;10.60;99.90;;;;;;5057100;28;20498;-70
2021/09/28 06:27:10;;;;;;;40.53;30.13;;;10.70;99.90;;;;;;5056855;28;20490;-70
2021/09/28 06:29:39;;;;;;;14.70;10.10;;;10.80;99.90;;;;;;5056738;28;20520;-70
2021/09/28 06:32:07;;;;;;;19.63;9.23;;;10.90;99.90;;;;;;5056785;28;20466;-70
2021/09/28 06:34:34;;;;;;;14.10;7.80;;;11.00;99.90;;;;;;5056614;28;20929;-70
2021/09/28 06:37:01;;;;;;;12.30;8.47;;;11.10;99.90;;;;;;5056837;28;20466;-70
2021/09/28 06:39:31;;;;;;;16.73;8.60;;;11.30;99.90;;;;;;5056516;28;20897;-70
2021/09/28 06:41:58;;;;;;;16.33;11.57;;;11.40;99.90;;;;;;5056449;28;20472;-69
2021/09/28 06:44:25;;;;;;;15.03;10.27;;;11.50;99.90;;;;;;5057361;28;20862;-69
2021/09/28 06:46:53;;;;;;;14.33;10.30;;;11.60;99.90;;;;;;5060817;28;20904;-69
2021/09/28 06:49:20;;;;;;;15.57;7.13;;;11.80;99.90;;;;;;5061028;28;20454;-69
2021/09/28 06:51:48;;;;;;;8.30;6.00;;;12.10;99.90;;;;;;5060500;28;20515;-69
2021/09/28 06:54:15;;;;;;;14.43;8.53;;;12.30;99.90;;;;;;5060254;28;20462;-69
2021/09/28 06:56:42;;;;;;;12.57;7.07;;;12.50;99.90;;;;;;5060568;28;20462;-69
2021/09/28 06:59:10;;;;;;;10.47;7.87;;;12.70;99.90;;;;;;5060620;28;20462;-69
2021/09/28 07:01:37;;;;;;;13.63;6.40;;;12.90;99.90;;;;;;5060485;28;20440;-69
2021/09/28 07:04:06;;;;;;;8.97;5.87;;;13.10;99.90;;;;;;5059959;28;20500;-69
2021/09/28 07:06:34;;;;;;;8.97;5.67;;;13.30;99.90;;;;;;5060452;28;20800;-69
2021/09/28 07:09:01;;;;;;;13.13;7.80;;;13.40;99.90;;;;;;5060261;28;20515;-68
2021/09/28 07:11:30;;;;;;;8.33;5.17;;;13.60;99.90;;;;;;5041525;28;20466;-68
2021/09/28 07:13:57;;;;;;;13.13;7.10;;;13.70;99.90;;;;;;5039549;28;20762;-68
2021/09/28 07:16:25;;;;;;;16.27;10.70;;;13.80;99.90;;;;;;5040154;28;20466;-68
2021/09/28 07:18:53;;;;;;;19.10;9.10;;;13.90;99.90;;;;;;5040415;28;20909;-68
2021/09/28 07:21:21;;;;;;;21.23;11.73;;;14.00;99.90;;;;;;5040338;28;20459;-68
2021/09/28 07:23:48;;;;;;;11.90;10.03;;;14.10;99.90;;;;;;5039880;28;20490;-68
2021/09/28 07:26:15;;;;;;;8.97;5.37;;;14.30;99.90;;;;;;5055798;28;20466;-67
2021/09/28 07:28:43;;;;;;;10.20;5.40;;;14.30;99.90;;;;;;5059842;28;20494;-67
2021/09/28 07:31:13;;;;;;;17.20;13.90;;;14.40;99.90;;;;;;5059978;28;20827;-67
2021/09/28 07:33:40;;;;;;;12.03;6.10;;;14.60;99.90;;;;;;5059363;28;20482;-67
2021/09/28 07:36:08;;;;;;;13.13;7.83;;;14.70;99.90;;;;;;5059662;28;20462;-67
2021/09/28 07:38:36;;;;;;;13.30;8.90;;;14.90;99.90;;;;;;5059573;28;20462;-67
2021/09/28 07:41:04;;;;;;;16.73;12.73;;;15.00;99.90;;;;;;5059644;28;20807;-67
2021/09/28 07:43:36;;;;;;;13.57;9.93;;;15.00;99.90;;;;;;5059161;28;20494;-67
2021/09/28 07:46:03;;;;;;;21.73;13.30;;;15.20;99.90;;;;;;5059845;28;20461;-66
2021/09/28 07:48:30;;;;;;;22.67;13.27;;;15.20;99.90;;;;;;5059502;28;20476;-66
2021/09/28 07:50:59;;;;;;;14.17;6.20;;;15.20;99.90;;;;;;5059228;28;20516;-67
2021/09/28 07:53:39;;;;;;;10.00;5.97;;;15.20;52.60;;;;;;5058967;28;20463;-67
2021/09/28 07:56:12;;;;;;;20.60;5.97;;;15.30;95.90;;;;;;5058146;28;20442;-66
2021/09/28 07:58:39;;;;;;;7.93;3.97;;;15.40;32.80;;;;;;5059230;28;20462;-67
2021/09/28 08:01:06;;;;;;;10.43;5.30;;;15.40;1.00;;;;;;5059267;28;20473;-66
2021/09/28 08:03:33;;;;;;;7.60;4.30;;;15.60;1.00;;;;;;5058931;28;20617;-66
2021/09/28 08:06:01;;;;;;;15.60;9.20;;;15.50;1.00;;;;;;5058851;28;20979;-65
2021/09/28 08:08:28;;;;;;;66.90;38.63;;;15.50;1.00;;;;;;5058819;28;20474;-65
2021/09/28 08:10:59;;;;;;;14.33;7.93;;;15.70;1.00;;;;;;5045258;28;20474;-64
2021/09/28 08:13:26;;;;;;;45.00;26.90;;;15.90;1.00;;;;;;5038530;28;20451;-65
2021/09/28 08:15:55;;;;;;;62.63;38.70;;;16.10;1.00;;;;;;5037888;28;20914;-64
2021/09/28 08:18:22;;;;;;;19.70;11.00;;;16.20;1.00;;;;;;5037516;28;20478;-64
2021/09/28 08:20:54;;;;;;;12.70;5.77;;;16.20;1.00;;;;;;5038923;28;20504;-64
2021/09/28 08:23:21;;;;;;;8.60;5.53;;;16.40;1.00;;;;;;5038947;28;20483;-64
2021/09/28 08:26:00;;;;;;;11.00;5.07;;;16.50;1.00;;;;;;5038825;28;20513;-63
2021/09/28 08:31:13;;;;;;;19.30;9.17;;;16.80;1.00;;;;;;5038708;28;20753;-63
2021/09/28 08:33:40;;;;;;;11.77;7.93;;;17.00;1.00;;;;;;5047052;28;20821;-63
2021/09/28 08:36:08;;;;;;;14.20;5.93;;;17.30;1.00;;;;;;5058243;28;20813;-62
2021/09/28 08:38:37;;;;;;;10.57;4.10;;;17.70;1.00;;;;;;5058523;28;20466;-62
2021/09/28 08:41:15;;;;;;;9.53;6.77;;;17.80;1.00;;;;;;5058897;28;20462;-62
2021/09/28 08:43:49;;;;;;;12.97;7.60;;;17.80;1.00;;;;;;5058305;28;20490;-62
2021/09/28 08:46:17;;;;;;;9.50;7.40;;;17.90;1.00;;;;;;5058401;28;20466;-62
2021/09/28 08:48:44;;;;;;;9.70;4.00;;;18.00;1.00;;;;;;5058866;28;20893;-62
2021/09/28 08:51:11;;;;;;;11.00;5.80;;;17.80;1.00;;;;;;5058365;28;20462;-62
2021/09/28 08:53:42;;;;;;;12.73;7.07;;;17.50;1.00;;;;;;5058161;28;20458;-62
2021/09/28 08:56:14;;;;;;;13.50;10.30;;;17.50;1.00;;;;;;5058499;28;20504;-60
2021/09/28 08:59:02;;;;;;;14.77;10.63;;;17.70;1.00;;;;;;5058414;28;20458;-62
2021/09/28 09:01:30;;;;;;;10.90;4.70;;;18.00;1.00;;;;;;5057987;28;20462;-61
2021/09/28 09:04:13;;;;;;;7.77;3.70;;;18.30;1.00;;;;;;5058033;28;20539;-61
2021/09/28 09:06:44;;;;;;;5.47;4.13;;;18.30;1.00;;;;;;5058186;28;20564;-61
2021/09/28 09:09:14;;;;;;;7.40;4.47;;;18.30;1.00;;;;;;5058289;28;20470;-61
2021/09/28 09:11:42;;;;;;;11.40;3.93;;;18.50;1.00;;;;;;5037633;28;20505;-61
2021/09/28 09:14:16;;;;;;;10.60;5.67;;;18.70;1.00;;;;;;5037845;28;20780;-61
2021/09/28 09:16:44;;;;;;;9.63;4.53;;;18.90;1.00;;;;;;5037964;28;20462;-59
2021/09/28 09:19:14;;;;;;;6.40;3.60;;;18.90;1.00;;;;;;5038065;28;20520;-60
2021/09/28 09:21:47;;;;;;;7.37;3.60;;;18.90;1.00;;;;;;5037382;28;20525;-60
2021/09/28 09:24:43;;;;;;;9.77;5.70;;;18.90;1.00;;;;;;5037775;28;20540;-58
2021/09/28 09:27:13;;;;;;;11.17;4.40;;;18.90;1.00;;;;;;5038248;28;20462;-59
2021/09/28 09:29:43;;;;;;;6.97;4.13;;;18.70;1.00;;;;;;5037637;28;20890;-58
2021/09/28 09:32:13;;;;;;;9.63;4.47;;;18.80;1.00;;;;;;5037582;28;20459;-58
2021/09/28 09:34:54;;;;;;;11.33;4.00;;;19.00;1.00;;;;;;5054368;28;20548;-60
2021/09/28 09:37:22;;;;;;;7.17;4.23;;;18.80;99.90;;;;;;5057725;28;20454;-57
2021/09/28 09:39:50;;;;;;;8.20;4.37;;;18.90;99.90;;;;;;5057259;28;20469;-58
2021/09/28 09:42:18;;;;;;;8.87;4.30;;;18.80;1.00;;;;;;5057264;28;20462;-59
2021/09/28 09:44:47;;;;;;;7.33;3.60;;;18.80;1.00;;;;;;5057584;28;20493;-59
2021/09/28 09:47:35;;;;;;;5.50;3.63;;;18.70;99.90;;;;;;5057724;28;20458;-60
2021/09/28 09:50:18;;;;;;;7.90;3.47;;;18.60;1.00;;;;;;5057188;28;20469;-59
2021/09/28 09:53:07;;;;;;;9.33;3.80;;;18.40;99.90;;;;;;5055029;28;20470;-58
2021/09/28 09:55:43;;;;;;;8.30;4.20;;;18.40;99.90;;;;;;5057083;28;20466;-58
2021/09/28 09:58:11;;;;;;;12.13;3.53;;;18.60;1.00;;;;;;5057348;28;20462;-58
2021/09/28 10:00:40;;;;;;;10.67;4.20;;;18.50;99.90;;;;;;5057141;28;20465;-58
2021/09/28 10:03:08;;;;;;;8.83;3.90;;;19.00;99.90;;;;;;5057188;28;20473;-59
2021/09/28 10:05:37;;;;;;;5.60;3.83;;;19.10;99.90;;;;;;5057028;28;20494;-59
2021/09/28 10:08:08;;;;;;;6.10;3.27;;;19.10;99.90;;;;;;5056946;28;20476;-59
2021/09/28 10:10:36;;;;;;;6.80;3.50;;;19.10;99.90;;;;;;5046319;28;20748;-60
2021/09/28 10:13:05;;;;;;;13.13;3.80;;;19.20;99.90;;;;;;5037183;28;20912;-57
2021/09/28 10:15:33;;;;;;;7.73;3.90;;;19.10;99.90;;;;;;5047920;28;20466;-58
2021/09/28 10:18:05;;;;;;;8.13;3.70;;;18.80;99.90;;;;;;5056834;28;20535;-58
2021/09/28 10:20:36;;;;;;;10.77;3.37;;;18.80;99.90;;;;;;5055845;28;20466;-57
2021/09/28 10:23:15;;;;;;;6.73;3.83;;;18.70;99.90;;;;;;5056965;28;20766;-59
2021/09/28 10:25:45;;;;;;;7.40;3.40;;;18.80;99.90;;;;;;5056649;28;20539;-58
2021/09/28 10:28:40;;;;;;;8.03;3.80;;;18.70;99.90;;;;;;5056956;28;20473;-58
2021/09/28 10:31:13;;;;;;;11.47;3.67;;;19.20;99.90;;;;;;5010275;28;20508;-59
2021/09/28 10:33:53;;;;;;;8.90;4.50;;;19.50;99.90;;;;;;5056372;28;20494;-52
2021/09/28 10:36:25;;;;;;;7.90;3.27;;;19.40;99.90;;;;;;5056918;28;20457;-55
2021/09/28 10:39:01;;;;;;;11.10;3.47;;;19.10;99.90;;;;;;5057347;28;20462;-55
2021/09/28 10:41:52;;;;;;;5.07;3.30;;;19.00;99.90;;;;;;5057072;28;20525;-58
2021/09/28 10:44:47;;;;;;;14.27;4.10;;;18.90;99.90;;;;;;5056555;28;20497;-58
2021/09/28 10:47:52;;;;;;;5.67;3.10;;;19.40;99.90;;;;;;5056897;28;20892;-59
2021/09/28 10:50:32;;;;;;;8.07;3.57;;;19.50;99.90;;;;;;5056060;28;20466;-57
2021/09/28 10:53:02;;;;;;;8.13;3.53;;;19.60;99.90;;;;;;5056654;28;20564;-57
2021/09/28 10:55:41;;;;;;;6.27;3.60;;;19.90;99.90;;;;;;5055737;28;20501;-53
2021/09/28 10:58:17;;;;;;;5.70;3.00;;;20.10;99.90;;;;;;5056988;28;20465;-55
2021/09/28 11:01:18;;;;;;;9.40;3.50;;;20.00;99.90;;;;;;5056939;28;20465;-55
2021/09/28 11:03:57;;;;;;;7.53;2.53;;;19.90;99.90;;;;;;5057421;28;20465;-52
2021/09/28 11:06:47;;;;;;;10.13;3.80;;;20.00;99.90;;;;;;5055490;28;20545;-55
2021/09/28 11:09:16;;;;;;;8.93;3.37;;;19.90;99.90;;;;;;5055829;28;20463;-59
2021/09/28 11:11:45;;;;;;;6.97;3.30;;;19.70;99.90;;;;;;5054396;28;20486;-55
2021/09/28 11:14:15;;;;;;;8.30;3.10;;;19.60;99.90;;;;;;5056874;28;20463;-56
2021/09/28 11:16:51;;;;;;;8.43;3.53;;;19.70;99.90;;;;;;5055752;28;20462;-58
2021/09/28 11:19:18;;;;;;;6.80;3.40;;;19.80;99.90;;;;;;5056126;28;20537;-58
2021/09/28 11:21:48;;;;;;;7.77;2.97;;;19.90;99.90;;;;;;5055691;28;20455;-57
2021/09/28 11:24:21;;;;;;;5.50;3.07;;;19.90;99.90;;;;;;5055845;28;20462;-59
2021/09/28 11:26:50;;;;;;;8.13;3.70;;;19.90;99.90;;;;;;5056586;28;20490;-55
2021/09/28 11:29:23;;;;;;;5.83;3.20;;;20.00;99.90;;;;;;5056500;28;20609;-58
2021/09/28 11:31:51;;;;;;;7.80;3.27;;;20.40;99.90;;;;;;5059454;28;20545;-58
2021/09/28 11:34:30;;;;;;;8.60;3.10;;;20.80;99.90;;;;;;5059310;28;20964;-56
2021/09/28 11:37:02;;;;;;;9.13;3.57;;;20.90;99.90;;;;;;5059252;28;20769;-58
2021/09/28 11:39:33;;;;;;;15.73;3.93;;;20.70;99.90;;;;;;5059530;28;20466;-56
2021/09/28 11:42:01;;;;;;;6.80;2.73;;;20.50;99.90;;;;;;5059755;28;20841;-56
2021/09/28 11:44:36;;;;;;;5.20;3.00;;;20.20;99.90;;;;;;5059554;28;20464;-58
2021/09/28 11:47:11;;;;;;;9.10;3.70;;;20.30;99.90;;;;;;5059199;28;20462;-59
2021/09/28 11:50:03;;;;;;;6.93;2.60;;;20.60;99.90;;;;;;5059113;28;20805;-56
2021/09/28 11:52:35;;;;;;;11.57;3.93;;;20.70;99.90;;;;;;5059527;28;20511;-56
2021/09/28 11:55:02;;;;;;;6.83;3.40;;;20.60;99.90;;;;;;5059631;28;20458;-56
2021/09/28 11:57:36;;;;;;;7.73;3.37;;;20.40;99.90;;;;;;5058195;28;20535;-59
2021/09/28 12:00:08;;;;;;;7.20;4.10;;;20.70;99.90;;;;;;5059354;28;20465;-57
2021/09/28 12:02:35;;;;;;;7.37;3.00;;;20.60;99.90;;;;;;5059283;28;20948;-57
2021/09/28 12:08:01;;;;;;;7.60;3.10;;;20.70;99.90;;;;;;5059320;28;20575;-55
2021/09/28 12:10:37;;;;;;;6.00;3.50;;;20.70;99.90;;;;;;5058788;28;20743;-55
2021/09/28 12:13:27;;;;;;;9.33;3.63;;;20.90;99.90;;;;;;5059354;28;20466;-58
2021/09/28 12:16:12;;;;;;;9.90;3.40;;;21.00;99.90;;;;;;5058212;28;20458;-57
2021/09/28 12:18:46;;;;;;;5.93;3.47;;;20.80;99.90;;;;;;5059179;28;20468;-59
2021/09/28 12:21:28;;;;;;;5.90;3.53;;;20.70;99.90;;;;;;5058870;28;20445;-57
2021/09/28 12:24:19;;;;;;;5.83;3.00;;;21.00;99.90;;;;;;5058832;28;20458;-54
2021/09/28 12:26:48;;;;;;;6.53;3.27;;;21.10;99.90;;;;;;5059082;28;20455;-57
2021/09/28 12:29:18;;;;;;;8.87;4.10;;;21.00;99.90;;;;;;5058431;28;20800;-54
2021/09/28 12:31:46;;;;;;;4.03;2.73;;;20.90;99.90;;;;;;5058376;28;20470;-52
2021/09/28 12:34:13;;;;;;;7.03;3.47;;;21.00;99.90;;;;;;5057781;28;20536;-56
2021/09/28 12:36:40;;;;;;;10.20;3.50;;;20.90;99.90;;;;;;5058597;28;20527;-53
2021/09/28 12:39:11;;;;;;;5.00;3.53;;;20.60;99.90;;;;;;5058034;28;20458;-56
2021/09/28 12:41:59;;;;;;;8.20;3.73;;;20.60;99.90;;;;;;5057831;28;20909;-54
2021/09/28 12:44:29;;;;;;;15.10;4.23;;;20.70;99.90;;;;;;5058317;28;20815;-49
2021/09/28 12:46:56;;;;;;;8.80;3.10;;;20.50;99.90;;;;;;5059012;28;20799;-54
2021/09/28 12:49:36;;;;;;;12.97;3.70;;;20.40;99.90;;;;;;5058373;28;20873;-50
2021/09/28 12:52:04;;;;;;;6.37;3.30;;;20.40;99.90;;;;;;5058138;28;20507;-51
2021/09/28 12:54:34;;;;;;;6.33;3.23;;;20.30;99.90;;;;;;5058430;28;20462;-51
2021/09/28 12:57:02;;;;;;;6.00;3.40;;;20.40;99.90;;;;;;5057811;28;20513;-52
2021/09/28 12:59:29;;;;;;;9.07;3.80;;;20.60;99.90;;;;;;5057887;28;20521;-50
2021/09/28 13:01:56;;;;;;;4.57;2.60;;;20.60;99.90;;;;;;5057480;28;20469;-51